createdAt,value
2022-08-30T00:01:58.429Z,99210.20
2022-08-30T00:05:16.705Z,99205.63
2022-08-30T00:08:32.846Z,99203.33
2022-08-30T00:11:51.996Z,99201.06
2022-08-30T00:15:07.791Z,99200.84
2022-08-30T00:18:26.246Z,99203.09
2022-08-30T00:21:42.729Z,99203.09
2022-08-30T00:25:00.795Z,99207.41
2022-08-30T00:28:17.731Z,99211.48
2022-08-30T00:31:36.054Z,99217.23
2022-08-30T00:34:52.153Z,99220.70
2022-08-30T00:38:08.416Z,99215.91
2022-08-30T00:41:24.631Z,99212.00
2022-08-30T00:44:41.034Z,99210.55
2022-08-30T00:47:57.714Z,99216.47
2022-08-30T00:51:18.670Z,99212.50
2022-08-30T00:54:35.905Z,99209.02
2022-08-30T00:57:54.012Z,99201.66
2022-08-30T01:01:12.684Z,99201.83
2022-08-30T01:04:31.929Z,99198.12
2022-08-30T01:07:49.550Z,99204.90
2022-08-30T01:11:07.338Z,99205.77
2022-08-30T01:14:25.891Z,99201.83
2022-08-30T01:17:43.541Z,99192.57
2022-08-30T01:21:08.125Z,99189.67
2022-08-30T01:24:28.124Z,99195.04
2022-08-30T01:27:49.272Z,99195.45
2022-08-30T01:31:05.912Z,99185.56
2022-08-30T01:34:23.084Z,99186.77
2022-08-30T01:37:41.754Z,99192.48
2022-08-30T01:41:00.451Z,99196.61
2022-08-30T01:44:18.749Z,99191.47
2022-08-30T01:47:35.098Z,99193.27
2022-08-30T01:50:53.927Z,99196.14
2022-08-30T01:54:11.602Z,99192.45
2022-08-30T01:57:30.452Z,99189.15
2022-08-30T02:00:46.519Z,99186.89
2022-08-30T02:04:04.997Z,99186.22
2022-08-30T02:07:22.090Z,99191.48
2022-08-30T02:10:39.105Z,99192.93
2022-08-30T02:13:56.351Z,99181.08
2022-08-30T02:17:17.129Z,99187.26
2022-08-30T02:20:33.655Z,99185.20
2022-08-30T02:23:50.438Z,99181.08
2022-08-30T02:27:08.394Z,99185.58
2022-08-30T02:30:26.517Z,99186.59
2022-08-30T02:33:43.208Z,99188.77
2022-08-30T02:36:59.444Z,99177.88
2022-08-30T02:40:19.053Z,99179.53
2022-08-30T02:43:35.742Z,99184.86
2022-08-30T02:46:52.049Z,99181.18
2022-08-30T02:50:10.717Z,99174.19
2022-08-30T02:53:27.809Z,99176.86
2022-08-30T02:56:43.941Z,99175.20
2022-08-30T03:00:00.280Z,99179.70
2022-08-30T03:03:19.800Z,99183.00
2022-08-30T03:06:36.262Z,99183.58
2022-08-30T03:09:53.667Z,99176.99
2022-08-30T03:13:09.952Z,99182.45
2022-08-30T03:16:26.885Z,99185.75
2022-08-30T03:19:44.213Z,99178.16
2022-08-30T03:23:00.938Z,99189.19
2022-08-30T03:26:19.349Z,99180.75
2022-08-30T03:29:36.676Z,99184.25
2022-08-30T03:32:53.046Z,99182.20
2022-08-30T03:36:54.736Z,99186.08
2022-08-30T03:40:12.580Z,99184.63
2022-08-30T03:43:29.231Z,99188.74
2022-08-30T03:46:46.223Z,99186.08
2022-08-30T03:50:02.622Z,99193.88
2022-08-30T03:53:19.773Z,99195.97
2022-08-30T03:56:36.390Z,99205.50
2022-08-30T03:59:52.531Z,99209.02
2022-08-30T04:03:08.766Z,99219.44
2022-08-30T04:06:24.999Z,99221.05
2022-08-30T04:09:42.775Z,99221.61
2022-08-30T04:12:59.827Z,99222.18
2022-08-30T04:16:16.525Z,99225.86
2022-08-30T04:19:33.061Z,99227.52
2022-08-30T04:22:49.117Z,99219.52
2022-08-30T04:26:05.760Z,99228.27
2022-08-30T04:29:22.274Z,99226.05
2022-08-30T04:32:39.190Z,99229.66
2022-08-30T04:35:57.683Z,99229.17
2022-08-30T04:39:14.717Z,99223.88
2022-08-30T04:42:32.496Z,99227.19
2022-08-30T04:45:51.435Z,99228.44
2022-08-30T04:49:07.947Z,99236.11
2022-08-30T04:52:24.531Z,99242.33
2022-08-30T04:55:40.910Z,99237.67
2022-08-30T04:58:59.481Z,99241.04
2022-08-30T05:02:15.949Z,99246.23
2022-08-30T05:05:47.537Z,99252.41
2022-08-30T05:09:04.475Z,99254.13
2022-08-30T05:12:20.871Z,99254.38
2022-08-30T05:15:36.895Z,99262.21
2022-08-30T05:18:54.763Z,99262.47
2022-08-30T05:22:13.888Z,99269.26
2022-08-30T05:25:34.076Z,99268.26
2022-08-30T05:28:52.221Z,99271.79
2022-08-30T05:32:08.637Z,99265.03
2022-08-30T05:35:27.540Z,99276.78
2022-08-30T05:38:43.842Z,99267.97
2022-08-30T05:42:02.839Z,99264.50
2022-08-30T05:45:21.729Z,99260.22
2022-08-30T05:48:38.318Z,99267.85
2022-08-30T05:51:55.599Z,99266.83
2022-08-30T05:55:13.934Z,99274.05
2022-08-30T05:58:30.008Z,99271.78
2022-08-30T06:01:48.689Z,99276.14
2022-08-30T06:05:06.030Z,99272.05
2022-08-30T06:08:22.168Z,99280.69
2022-08-30T06:11:38.720Z,99278.44
2022-08-30T06:14:55.872Z,99275.33
2022-08-30T06:18:12.328Z,99275.70
2022-08-30T06:21:32.594Z,99290.28
2022-08-30T06:25:03.701Z,99283.16
2022-08-30T06:28:06.733Z,99302.21
2022-08-30T06:31:25.560Z,99295.78
2022-08-30T06:34:42.034Z,99292.88
2022-08-30T06:37:58.267Z,99300.80
2022-08-30T06:41:19.764Z,99310.67
2022-08-30T06:44:35.897Z,99309.95
2022-08-30T06:47:52.735Z,99309.36
2022-08-30T06:51:09.276Z,99319.10
2022-08-30T06:54:25.410Z,99310.61
2022-08-30T06:57:42.247Z,99327.11
2022-08-30T07:01:01.371Z,99323.11
2022-08-30T07:04:17.663Z,99319.45
2022-08-30T07:07:33.793Z,99307.75
2022-08-30T07:10:50.600Z,99323.31
2022-08-30T07:14:07.119Z,99317.50
2022-08-30T07:17:37.147Z,99322.47
2022-08-30T07:20:53.205Z,99313.38
2022-08-30T07:24:11.023Z,99314.80
2022-08-30T07:27:27.178Z,99330.14
2022-08-30T07:30:44.614Z,99330.84
2022-08-30T07:34:01.127Z,99319.48
2022-08-30T07:37:18.103Z,99321.38
2022-08-30T07:40:35.246Z,99320.08
2022-08-30T07:43:51.489Z,99319.01
2022-08-30T07:47:07.720Z,99324.08
2022-08-30T07:50:23.997Z,99317.64
2022-08-30T07:53:40.275Z,99320.90
2022-08-30T07:56:56.540Z,99322.50
2022-08-30T08:00:16.507Z,99321.91
2022-08-30T08:03:32.548Z,99322.61
2022-08-30T08:06:49.903Z,99326.34
2022-08-30T08:10:05.982Z,99326.93
2022-08-30T08:13:24.372Z,99333.55
2022-08-30T08:16:45.845Z,99333.77
2022-08-30T08:20:02.002Z,99328.73
2022-08-30T08:23:18.274Z,99337.54
2022-08-30T08:26:34.820Z,99336.98
2022-08-30T08:30:29.463Z,99344.36
2022-08-30T08:57:29.964Z,99351.75
2022-08-30T09:01:45.246Z,99348.14
2022-08-30T09:26:21.663Z,99350.14
2022-08-30T09:30:07.047Z,99335.42
2022-08-30T09:33:29.543Z,99343.31
2022-08-30T09:36:52.260Z,99328.92
2022-08-30T09:40:11.657Z,99334.47
2022-08-30T09:44:15.512Z,99340.30
2022-08-30T09:47:48.589Z,99339.00
2022-08-30T09:55:56.334Z,99331.78
2022-08-30T09:59:28.138Z,99332.87
2022-08-30T10:03:08.992Z,99331.00
2022-08-30T10:06:36.102Z,99314.86
2022-08-30T10:09:58.143Z,99318.95
2022-08-30T10:22:05.406Z,99312.13
2022-08-30T10:26:12.191Z,99309.88
2022-08-30T10:34:56.057Z,99306.84
2022-08-30T10:38:22.622Z,99307.42
2022-08-30T10:58:15.513Z,99289.69
2022-08-30T11:01:51.193Z,99284.11
2022-08-30T11:11:15.378Z,99271.72
2022-08-30T11:17:41.181Z,99281.70
2022-08-30T11:24:14.186Z,99274.63
2022-08-30T11:27:59.381Z,99276.92
2022-08-30T11:37:55.650Z,99271.55
2022-08-30T11:47:47.455Z,99266.92
2022-08-30T11:51:29.235Z,99262.89
2022-08-30T11:55:27.362Z,99251.38
2022-08-30T12:16:00.234Z,99245.77
2022-08-30T12:19:26.589Z,99233.12
2022-08-30T12:23:27.831Z,99237.20
2022-08-30T12:26:55.874Z,99223.94
2022-08-30T12:30:17.464Z,99222.25
2022-08-30T12:33:42.944Z,99220.30
2022-08-30T13:24:58.371Z,99169.08
2022-08-30T13:28:16.550Z,99166.64
2022-08-30T13:31:44.315Z,99157.95
2022-08-30T13:57:13.378Z,99152.55
2022-08-30T14:00:41.841Z,99153.24
2022-08-30T14:04:15.782Z,99152.44
2022-08-30T14:07:25.301Z,99148.67
2022-08-30T14:10:47.404Z,99155.14
2022-08-30T14:14:15.035Z,99149.67
2022-08-30T14:17:31.227Z,99139.35
2022-08-30T14:20:53.632Z,99144.76
2022-08-30T14:24:11.007Z,99141.97
2022-08-30T14:27:27.753Z,99136.56
2022-08-30T14:30:47.128Z,99127.50
2022-08-30T14:34:51.888Z,99126.89
2022-08-30T14:38:13.329Z,99121.72
2022-08-30T14:41:34.625Z,99117.57
2022-08-30T14:44:56.921Z,99129.50
2022-08-30T14:48:14.823Z,99124.41
2022-08-30T14:51:38.147Z,99129.34
2022-08-30T14:55:00.263Z,99123.19
2022-08-30T14:59:21.360Z,99118.91
2022-08-30T15:02:41.666Z,99123.57
2022-08-30T15:06:01.890Z,99123.66
2022-08-30T15:09:23.081Z,99116.94
2022-08-30T15:12:47.421Z,99119.64
2022-08-30T15:16:08.940Z,99121.27
2022-08-30T15:19:26.888Z,99121.02
2022-08-30T15:23:11.537Z,99114.55
2022-08-30T15:27:28.843Z,99120.50
2022-08-30T15:31:09.492Z,99119.38
2022-08-30T15:34:31.293Z,99112.08
2022-08-30T15:37:48.431Z,99114.55
2022-08-30T15:41:16.392Z,99117.25
2022-08-30T15:44:39.830Z,99116.09
2022-08-30T15:47:57.362Z,99113.66
2022-08-30T15:51:14.484Z,99114.95
2022-08-30T15:54:33.041Z,99109.97
2022-08-30T15:57:49.482Z,99108.79
2022-08-30T16:01:06.449Z,99110.53
2022-08-30T16:04:23.285Z,99098.80
2022-08-30T16:07:50.917Z,99096.99
2022-08-30T16:11:20.434Z,99086.97
2022-08-30T16:14:36.825Z,99090.72
2022-08-30T16:17:54.236Z,99089.92
2022-08-30T16:21:17.900Z,99084.59
2022-08-30T16:24:34.278Z,99090.53
2022-08-30T16:27:50.926Z,99087.90
2022-08-30T16:31:08.267Z,99094.45
2022-08-30T16:34:27.769Z,99092.30
2022-08-30T16:37:43.930Z,99095.77
2022-08-30T16:41:00.943Z,99089.22
2022-08-30T16:44:18.485Z,99098.89
2022-08-30T16:47:35.100Z,99089.92
2022-08-30T16:50:53.454Z,99087.44
2022-08-30T16:54:14.207Z,99090.08
2022-08-30T16:57:31.470Z,99092.30
2022-08-30T17:00:48.480Z,99095.63
2022-08-30T17:04:05.353Z,99095.80
2022-08-30T17:07:22.606Z,99097.77
2022-08-30T17:10:39.830Z,99103.47
2022-08-30T17:13:59.068Z,99106.55
2022-08-30T17:17:16.705Z,99105.08
2022-08-30T17:20:35.775Z,99108.56
2022-08-30T17:23:54.227Z,99111.64
2022-08-30T17:27:13.608Z,99117.40
2022-08-30T17:30:30.581Z,99126.09
2022-08-30T17:33:47.177Z,99129.16
2022-08-30T17:37:03.883Z,99137.63
2022-08-30T17:40:21.593Z,99133.29
2022-08-30T17:43:38.054Z,99133.41
2022-08-30T17:46:54.609Z,99133.05
2022-08-30T17:50:12.790Z,99150.41
2022-08-30T17:53:29.102Z,99146.20
2022-08-30T17:56:46.123Z,99157.56
2022-08-30T18:00:03.420Z,99159.79
2022-08-30T18:03:20.519Z,99170.44
2022-08-30T18:06:38.401Z,99162.37
2022-08-30T18:09:56.401Z,99174.18
2022-08-30T18:13:13.351Z,99176.52
2022-08-30T18:16:31.437Z,99180.94
2022-08-30T18:19:48.544Z,99181.16
2022-08-30T18:23:05.415Z,99185.13
2022-08-30T18:26:24.983Z,99194.13
2022-08-30T18:29:41.973Z,99192.16
2022-08-30T18:32:59.127Z,99193.89
2022-08-30T18:36:16.614Z,99194.20
2022-08-30T18:39:36.420Z,99195.48
2022-08-30T18:42:52.722Z,99196.39
2022-08-30T18:46:13.756Z,99203.28
2022-08-30T18:49:34.291Z,99206.28
2022-08-30T18:52:50.571Z,99214.66
2022-08-30T18:56:08.181Z,99207.36
2022-08-30T18:59:35.240Z,99213.88
2022-08-30T19:02:43.691Z,99209.84
2022-08-30T19:06:00.388Z,99209.33
2022-08-30T19:09:17.073Z,99204.98
2022-08-30T19:12:35.070Z,99202.97
2022-08-30T19:15:51.478Z,99208.20
2022-08-30T19:19:08.165Z,99207.45
2022-08-30T19:22:32.864Z,99197.37
2022-08-30T19:25:46.893Z,99204.61
2022-08-30T19:29:05.817Z,99209.84
2022-08-30T19:32:23.423Z,99208.80
2022-08-30T19:35:40.248Z,99205.66
2022-08-30T19:38:56.746Z,99200.14
2022-08-30T19:42:13.615Z,99210.27
2022-08-30T19:45:32.043Z,99210.96
2022-08-30T19:48:50.525Z,99215.64
2022-08-30T19:52:09.538Z,99217.75
2022-08-30T19:55:31.594Z,99215.95
2022-08-30T19:58:47.879Z,99215.11
2022-08-30T20:02:04.085Z,99203.80
2022-08-30T20:05:22.486Z,99215.20
2022-08-30T20:08:40.252Z,99209.33
2022-08-30T20:11:58.824Z,99208.11
2022-08-30T20:15:18.842Z,99214.83
2022-08-30T20:18:35.740Z,99210.20
2022-08-30T20:21:53.462Z,99209.13
2022-08-30T20:25:10.899Z,99206.79
2022-08-30T20:28:30.385Z,99197.94
2022-08-30T20:31:50.578Z,99198.43
2022-08-30T20:35:07.070Z,99199.37
2022-08-30T20:38:26.064Z,99197.75
2022-08-30T20:42:10.617Z,99207.67
2022-08-30T20:45:31.041Z,99194.52
2022-08-30T20:48:47.206Z,99195.38
2022-08-30T20:52:04.973Z,99199.15
2022-08-30T20:55:23.007Z,99202.11
2022-08-30T20:58:39.401Z,99204.17
2022-08-30T21:01:58.632Z,99206.68
2022-08-30T21:05:17.143Z,99211.86
2022-08-30T21:08:33.973Z,99208.39
2022-08-30T21:11:50.950Z,99213.13
2022-08-30T21:15:34.075Z,99213.35
2022-08-30T21:18:27.752Z,99213.59
2022-08-30T21:21:44.380Z,99213.59
2022-08-30T21:25:03.185Z,99211.56
2022-08-30T21:28:19.871Z,99218.55
2022-08-30T21:31:38.584Z,99216.69
2022-08-30T21:35:08.777Z,99218.99
2022-08-30T21:38:25.316Z,99217.75
2022-08-30T21:41:43.940Z,99212.03
2022-08-30T21:45:00.126Z,99211.22
2022-08-30T21:48:17.744Z,99215.14
2022-08-30T21:51:35.808Z,99214.12
2022-08-30T21:54:51.958Z,99225.05
2022-08-30T21:58:10.784Z,99216.39
2022-08-30T22:01:31.724Z,99215.39
2022-08-30T22:04:49.690Z,99221.13
2022-08-30T22:08:05.810Z,99218.59
2022-08-30T22:11:26.030Z,99209.31
2022-08-30T22:14:42.451Z,99216.80
2022-08-30T22:17:58.711Z,99214.77
2022-08-30T22:21:18.760Z,99216.23
2022-08-30T22:24:35.042Z,99216.85
2022-08-30T22:27:51.319Z,99210.25
2022-08-30T22:31:10.675Z,99217.28
2022-08-30T22:34:29.378Z,99212.56
2022-08-30T22:37:47.756Z,99205.77
2022-08-30T22:41:04.238Z,99207.61
2022-08-30T22:44:20.768Z,99203.10
2022-08-30T22:47:38.903Z,99200.42
2022-08-30T22:50:55.572Z,99209.45
2022-08-30T22:54:13.507Z,99202.08
2022-08-30T22:57:29.828Z,99205.37
2022-08-30T23:00:54.775Z,99203.30
2022-08-30T23:04:11.113Z,99205.57
2022-08-30T23:07:27.321Z,99203.11
2022-08-30T23:10:49.498Z,99213.59
2022-08-30T23:14:05.947Z,99214.83
2022-08-30T23:17:22.013Z,99216.28
2022-08-30T23:20:38.326Z,99218.52
2022-08-30T23:24:08.862Z,99210.71
2022-08-30T23:27:39.570Z,99205.75
2022-08-30T23:31:09.730Z,99196.48
2022-08-30T23:34:40.376Z,99205.32
2022-08-30T23:38:10.355Z,99198.11
2022-08-30T23:41:40.773Z,99193.19
2022-08-30T23:45:11.870Z,99198.12
2022-08-30T23:48:42.261Z,99193.16
2022-08-30T23:52:14.097Z,99196.43
2022-08-30T23:55:44.139Z,99192.95
2022-08-30T23:59:14.150Z,99180.01
